Time;durP1;ratioP1;P1;durP2;ratioP2;P2;SDS_P1;SDS_P2;PMS_P1;PMS_P2;Temp;Humidity;BMP_temperature;BMP_pressure;BME280_temperature;BME280_humidity;BME280_pressure;Samples;Min_cycle;Max_cycle;Signal;HPM_P1;HPM_P2
2024/04/03 00:00:09;;;;;;;;;;;8.80;59.70;;;;;;5052006;28;19912;-75
2024/04/03 00:02:35;;;;;;;;;;;8.80;58.90;;;;;;5052563;28;19921;-75
2024/04/03 00:05:00;;;;;;;;;;;8.70;59.80;;;;;;5051203;28;19919;-72
2024/04/03 00:07:26;;;;;;;;;;;8.70;59.70;;;;;;5051744;28;19920;-71
2024/04/03 00:09:52;;;;;;;;;;;8.60;60.00;;;;;;5052566;28;20263;-76
2024/04/03 00:12:18;;;;;;;;;;;8.60;60.40;;;;;;5052678;28;19921;-72
2024/04/03 00:14:44;;;;;;;;;;;8.60;60.60;;;;;;5051427;28;20075;-75
2024/04/03 00:17:10;;;;;;;;;;;8.60;61.70;;;;;;5052774;28;20018;-76
2024/04/03 00:19:36;;;;;;;;;;;8.50;61.30;;;;;;5051164;28;20003;-76
2024/04/03 00:22:02;;;;;;;;;;;8.50;61.70;;;;;;5050403;28;19929;-75
2024/04/03 00:24:28;;;;;;;;;;;8.50;62.40;;;;;;5052152;28;19912;-71
2024/04/03 00:26:53;;;;;;;;;;;8.50;61.40;;;;;;5052108;28;19925;-72
2024/04/03 00:29:21;;;;;;;;;;;8.40;62.30;;;;;;5052754;28;19912;-72
2024/04/03 00:31:47;;;;;;;;;;;8.40;62.30;;;;;;5052372;28;20015;-74
2024/04/03 00:34:13;;;;;;;;;;;8.30;62.30;;;;;;5052642;28;20287;-71
2024/04/03 00:36:38;;;;;;;;;;;8.30;62.80;;;;;;5052612;28;19913;-72
2024/04/03 00:39:04;;;;;;;;;;;8.30;62.20;;;;;;5052210;28;19959;-71
2024/04/03 00:41:30;;;;;;;;;;;8.30;62.00;;;;;;5050594;28;19923;-71
2024/04/03 00:43:56;;;;;;;;;;;8.30;61.80;;;;;;5051206;28;20394;-71
2024/04/03 00:46:22;;;;;;;;;;;8.30;62.40;;;;;;5052449;28;19912;-71
2024/04/03 00:48:48;;;;;;;;;;;8.30;62.60;;;;;;5034631;28;20291;-72
2024/04/03 00:51:15;;;;;;;;;;;8.30;62.10;;;;;;5051994;28;20308;-75
2024/04/03 00:53:41;;;;;;;;;;;8.20;62.60;;;;;;5051022;28;19912;-75
2024/04/03 00:56:07;;;;;;;;;;;8.10;62.50;;;;;;5051076;28;20436;-76
2024/04/03 00:58:34;;;;;;;;;;;8.10;62.60;;;;;;5033889;28;19921;-76
2024/04/03 01:01:01;;;;;;;;;;;8.10;62.70;;;;;;5050425;28;20275;-76
2024/04/03 01:03:27;;;;;;;;;;;8.00;62.60;;;;;;5052827;28;20277;-75
2024/04/03 01:06:11;;;;;;;;;;;8.00;62.90;;;;;;5051099;28;19912;-75
2024/04/03 01:08:37;;;;;;;;;;;8.00;62.90;;;;;;5034519;28;19943;-71
2024/04/03 01:11:03;;;;;;;;;;;8.00;62.90;;;;;;5049520;28;19920;-71
2024/04/03 01:13:29;;;;;;;;;;;8.00;63.20;;;;;;5051979;28;20012;-72
2024/04/03 01:15:58;;;;;;;;;;;8.00;62.80;;;;;;5050211;28;19913;-75
2024/04/03 01:18:24;;;;;;;;;;;8.00;61.90;;;;;;5050586;28;19921;-76
2024/04/03 01:20:50;;;;;;;;;;;8.00;62.60;;;;;;5051039;28;20007;-72
2024/04/03 01:23:16;;;;;;;;;;;8.00;62.70;;;;;;5052351;28;20421;-76
2024/04/03 01:25:42;;;;;;;;;;;8.00;63.10;;;;;;5050607;28;19927;-72
2024/04/03 01:28:08;;;;;;;;;;;8.00;62.40;;;;;;5051175;28;20316;-72
2024/04/03 01:30:36;;;;;;;;;;;7.90;61.80;;;;;;5049737;28;19917;-75
2024/04/03 01:33:21;;;;;;;;;;;7.80;61.50;;;;;;5051198;28;19931;-75
2024/04/03 01:35:47;;;;;;;;;;;7.70;61.40;;;;;;5051208;28;19916;-71
2024/04/03 01:38:12;;;;;;;;;;;7.70;61.50;;;;;;5051875;28;20341;-75
2024/04/03 01:40:38;;;;;;;;;;;7.70;61.60;;;;;;5049661;28;19992;-76
2024/04/03 01:43:04;;;;;;;;;;;7.60;61.80;;;;;;5050859;28;19940;-75
2024/04/03 01:45:30;;;;;;;;;;;7.60;61.90;;;;;;5050170;28;20298;-75
2024/04/03 01:47:56;;;;;;;;;;;7.60;61.90;;;;;;5050250;28;19917;-76
2024/04/03 01:50:38;;;;;;;;;;;7.50;62.10;;;;;;5049743;28;19926;-71
2024/04/03 01:53:04;;;;;;;;;;;7.40;62.00;;;;;;5052101;28;19928;-72
2024/04/03 01:55:31;;;;;;;;;;;7.40;63.00;;;;;;5050413;28;19955;-75
2024/04/03 01:57:56;;;;;;;;;;;7.30;63.20;;;;;;5050508;28;20396;-76
2024/04/03 02:00:23;;;;;;;;;;;7.20;64.20;;;;;;5050065;28;20015;-75
2024/04/03 02:02:49;;;;;;;;;;;7.20;64.40;;;;;;5050758;28;20266;-71
2024/04/03 02:05:15;;;;;;;;;;;7.30;64.20;;;;;;5050544;28;19919;-75
2024/04/03 02:07:41;;;;;;;;;;;7.30;63.40;;;;;;5052167;28;19925;-76
2024/04/03 02:10:07;;;;;;;;;;;7.30;63.00;;;;;;5051053;28;19912;-71
2024/04/03 02:12:33;;;;;;;;;;;7.30;62.90;;;;;;5055177;28;19928;-71
2024/04/03 02:14:58;;;;;;;;;;;7.30;63.00;;;;;;5053795;28;19960;-74
2024/04/03 02:17:24;;;;;;;;;;;7.20;63.50;;;;;;5055395;28;19920;-75
2024/04/03 02:19:50;;;;;;;;;;;7.20;63.60;;;;;;5037779;28;19912;-71
2024/04/03 02:22:16;;;;;;;;;;;7.20;64.10;;;;;;5054980;28;19921;-75
2024/04/03 02:24:42;;;;;;;;;;;7.20;64.20;;;;;;5055165;28;19917;-76
2024/04/03 02:27:08;;;;;;;;;;;7.20;63.90;;;;;;5054946;28;20023;-75
2024/04/03 02:29:34;;;;;;;;;;;7.10;64.00;;;;;;5053845;28;19912;-74
2024/04/03 02:31:59;;;;;;;;;;;7.10;63.90;;;;;;5052964;28;19927;-75
2024/04/03 02:34:25;;;;;;;;;;;7.20;63.70;;;;;;5055233;28;20163;-71
2024/04/03 02:36:51;;;;;;;;;;;7.20;63.90;;;;;;5053755;28;20372;-76
2024/04/03 02:39:17;;;;;;;;;;;7.20;64.10;;;;;;5054836;28;20386;-71
2024/04/03 02:41:43;;;;;;;;;;;7.20;64.70;;;;;;5054502;28;20388;-75
2024/04/03 02:44:09;;;;;;;;;;;7.10;64.40;;;;;;5053217;28;20335;-75
2024/04/03 02:46:35;;;;;;;;;;;7.10;64.60;;;;;;5053370;28;19920;-76
2024/04/03 02:49:01;;;;;;;;;;;7.10;64.00;;;;;;5054589;28;19916;-75
2024/04/03 02:51:27;;;;;;;;;;;7.00;63.40;;;;;;5052714;28;19920;-73
2024/04/03 02:53:53;;;;;;;;;;;6.90;63.20;;;;;;5053578;28;19925;-75
2024/04/03 02:56:19;;;;;;;;;;;6.90;63.60;;;;;;5052543;28;19913;-75
2024/04/03 02:58:45;;;;;;;;;;;6.80;63.30;;;;;;5052589;28;19917;-75
2024/04/03 03:01:11;;;;;;;;;;;6.80;62.80;;;;;;5051907;28;19916;-71
2024/04/03 03:03:37;;;;;;;;;;;6.70;63.80;;;;;;5052391;28;19983;-71
2024/04/03 03:06:05;;;;;;;;;;;6.70;64.10;;;;;;5052315;28;19916;-71
2024/04/03 03:08:32;;;;;;;;;;;6.70;63.90;;;;;;5036371;28;19920;-75
2024/04/03 03:10:59;;;;;;;;;;;6.80;63.80;;;;;;5051711;28;20382;-71
2024/04/03 03:16:10;;;;;;;;;;;6.70;64.10;;;;;;5052669;28;20569;-76
2024/04/03 03:18:36;;;;;;;;;;;6.70;64.70;;;;;;5052761;28;19929;-71
2024/04/03 03:21:02;;;;;;;;;;;6.80;64.70;;;;;;5053229;28;19917;-71
2024/04/03 03:23:28;;;;;;;;;;;6.80;64.90;;;;;;5053788;28;20274;-71
2024/04/03 03:25:54;;;;;;;;;;;6.80;64.50;;;;;;5053430;28;19917;-76
2024/04/03 03:28:20;;;;;;;;;;;6.80;64.40;;;;;;5053889;28;19932;-75
2024/04/03 03:30:47;;;;;;;;;;;6.80;64.30;;;;;;5051405;28;19921;-71
2024/04/03 03:33:14;;;;;;;;;;;6.80;64.20;;;;;;5051894;28;20435;-75
2024/04/03 03:35:40;;;;;;;;;;;6.90;63.90;;;;;;5035178;28;19920;-75
2024/04/03 03:38:06;;;;;;;;;;;6.80;64.30;;;;;;5052143;28;20063;-75
2024/04/03 03:40:32;;;;;;;;;;;6.80;64.20;;;;;;5051287;28;19920;-71
2024/04/03 03:42:58;;;;;;;;;;;6.80;64.40;;;;;;5051678;28;20007;-71
2024/04/03 03:45:24;;;;;;;;;;;6.80;64.60;;;;;;5052744;28;19920;-76
2024/04/03 03:47:50;;;;;;;;;;;6.70;64.10;;;;;;5035454;28;19920;-71
2024/04/03 03:53:01;;;;;;;;;;;6.70;64.80;;;;;;5051821;28;20366;-71
2024/04/03 03:55:46;;;;;;;;;;;6.80;64.70;;;;;;5052536;28;19921;-75
2024/04/03 03:58:12;;;;;;;;;;;6.80;64.60;;;;;;5051094;28;20401;-75
2024/04/03 04:00:37;;;;;;;;;;;6.70;64.80;;;;;;5050790;28;19920;-75
2024/04/03 04:03:04;;;;;;;;;;;6.70;65.00;;;;;;5052729;28;19929;-71
2024/04/03 04:05:30;;;;;;;;;;;6.70;64.80;;;;;;5051192;28;19912;-71
2024/04/03 04:07:56;;;;;;;;;;;6.70;65.50;;;;;;5050995;28;19920;-76
2024/04/03 04:10:21;;;;;;;;;;;6.70;65.10;;;;;;5051907;28;19995;-71
2024/04/03 04:12:48;;;;;;;;;;;6.60;65.10;;;;;;5050935;28;19924;-71
2024/04/03 04:15:14;;;;;;;;;;;6.60;65.30;;;;;;5051016;28;19917;-75
2024/04/03 04:17:40;;;;;;;;;;;6.60;65.60;;;;;;5034743;28;19963;-71
2024/04/03 04:20:09;;;;;;;;;;;6.50;65.40;;;;;;5051953;28;19913;-71
2024/04/03 04:22:35;;;;;;;;;;;6.50;64.90;;;;;;5051149;28;19928;-71
2024/04/03 04:25:04;;;;;;;;;;;6.60;65.60;;;;;;5034239;28;20216;-75
2024/04/03 04:27:30;;;;;;;;;;;6.60;65.50;;;;;;5050967;28;19944;-76
2024/04/03 04:29:56;;;;;;;;;;;6.60;64.50;;;;;;5050794;28;19920;-71
2024/04/03 04:32:22;;;;;;;;;;;6.60;65.30;;;;;;5051595;28;19974;-71
2024/04/03 04:34:48;;;;;;;;;;;6.70;65.10;;;;;;5050065;28;19912;-71
2024/04/03 04:37:14;;;;;;;;;;;6.70;64.80;;;;;;5051925;28;19921;-71
2024/04/03 04:39:40;;;;;;;;;;;6.80;64.90;;;;;;5050722;28;19913;-72
2024/04/03 04:42:08;;;;;;;;;;;6.80;65.00;;;;;;5049882;28;19921;-75
2024/04/03 04:44:34;;;;;;;;;;;6.80;64.50;;;;;;5051630;28;19966;-74
2024/04/03 04:47:00;;;;;;;;;;;6.80;64.10;;;;;;5051752;28;19916;-71
2024/04/03 04:49:26;;;;;;;;;;;6.80;63.50;;;;;;5051843;28;20007;-71
2024/04/03 04:51:52;;;;;;;;;;;6.70;63.70;;;;;;5049852;28;20361;-71
2024/04/03 04:54:18;;;;;;;;;;;6.70;63.90;;;;;;5050626;28;19916;-75
2024/04/03 04:57:09;;;;;;;;;;;6.70;64.00;;;;;;5050305;28;19960;-71
2024/04/03 04:59:55;;;;;;;;;;;6.70;64.00;;;;;;5051777;28;19923;-75
2024/04/03 05:02:21;;;;;;;;;;;6.70;64.00;;;;;;5049875;28;19921;-76
2024/04/03 05:04:47;;;;;;;;;;;6.80;63.90;;;;;;5050287;28;20360;-71
2024/04/03 05:07:13;;;;;;;;;;;6.80;63.90;;;;;;5051714;28;20011;-74
2024/04/03 05:09:38;;;;;;;;;;;6.70;64.30;;;;;;5050217;28;19919;-71
2024/04/03 05:12:04;;;;;;;;;;;6.80;64.40;;;;;;5049524;28;19994;-75
2024/04/03 05:14:30;;;;;;;;;;;6.80;63.70;;;;;;5051298;28;19913;-75
2024/04/03 05:16:56;;;;;;;;;;;6.80;64.40;;;;;;5050166;28;20007;-71
2024/04/03 05:19:22;;;;;;;;;;;6.80;64.20;;;;;;5051472;28;19913;-75
2024/04/03 05:21:48;;;;;;;;;;;6.90;64.30;;;;;;5050831;28;20015;-71
2024/04/03 05:24:14;;;;;;;;;;;6.90;64.20;;;;;;5051557;28;19944;-75
2024/04/03 05:26:40;;;;;;;;;;;6.90;64.40;;;;;;5050360;28;20402;-71
2024/04/03 05:29:06;;;;;;;;;;;6.90;64.50;;;;;;5051632;28;19913;-74
2024/04/03 05:31:32;;;;;;;;;;;7.00;64.30;;;;;;5050844;28;20424;-71
2024/04/03 05:34:01;;;;;;;;;;;7.10;64.70;;;;;;5051076;28;19916;-71
2024/04/03 05:36:27;;;;;;;;;;;7.20;64.80;;;;;;5051273;28;19951;-75
2024/04/03 05:38:53;;;;;;;;;;;7.30;64.50;;;;;;5050103;28;19955;-75
2024/04/03 05:41:19;;;;;;;;;;;7.50;64.40;;;;;;5032802;28;19995;-76
2024/04/03 05:43:45;;;;;;;;;;;7.60;63.80;;;;;;5050196;28;20437;-75
2024/04/03 05:46:11;;;;;;;;;;;7.70;63.80;;;;;;5052980;28;19960;-75
2024/04/03 05:48:37;;;;;;;;;;;7.90;63.70;;;;;;5055068;28;19991;-71
2024/04/03 05:51:23;;;;;;;;;;;7.90;63.70;;;;;;5036475;28;19931;-71
2024/04/03 05:53:49;;;;;;;;;;;8.10;63.60;;;;;;5053554;28;19920;-71
2024/04/03 05:56:14;;;;;;;;;;;8.20;63.80;;;;;;5054909;28;20342;-71
2024/04/03 05:58:40;;;;;;;;;;;8.30;63.90;;;;;;5054887;28;19964;-76
2024/04/03 06:01:07;;;;;;;;;;;8.50;63.60;;;;;;5053068;28;20298;-72
2024/04/03 06:03:33;;;;;;;;;;;8.60;63.40;;;;;;5053815;28;19928;-71
2024/04/03 06:05:59;;;;;;;;;;;8.70;63.10;;;;;;5054867;28;19934;-76
2024/04/03 06:08:25;;;;;;;;;;;8.80;62.70;;;;;;5055176;28;20377;-71
2024/04/03 06:10:52;;;;;;;;;;;9.00;62.70;;;;;;5052687;28;19963;-75
2024/04/03 06:13:18;;;;;;;;;;;9.10;63.20;;;;;;5053412;28;19931;-72
2024/04/03 06:15:44;;;;;;;;;;;9.10;64.10;;;;;;5053135;28;19962;-76
2024/04/03 06:18:29;;;;;;;;;;;9.20;65.00;;;;;;5053602;28;20015;-76
2024/04/03 06:20:55;;;;;;;;;;;9.30;65.00;;;;;;5052734;28;20036;-71
2024/04/03 06:23:21;;;;;;;;;;;9.40;64.90;;;;;;5054813;28;19986;-76
2024/04/03 06:25:46;;;;;;;;;;;9.50;65.10;;;;;;5053034;28;20011;-75
2024/04/03 06:28:12;;;;;;;;;;;9.70;64.60;;;;;;5054369;28;20024;-75
2024/04/03 06:30:38;;;;;;;;;;;9.80;65.00;;;;;;5052451;28;19920;-73
2024/04/03 06:33:04;;;;;;;;;;;9.90;64.80;;;;;;5052871;28;19917;-76
2024/04/03 06:35:30;;;;;;;;;;;10.10;64.50;;;;;;5054377;28;20293;-72
2024/04/03 06:37:56;;;;;;;;;;;10.20;64.00;;;;;;5054008;28;19917;-72
2024/04/03 06:40:22;;;;;;;;;;;10.40;64.10;;;;;;5053738;28;19981;-75
2024/04/03 06:42:49;;;;;;;;;;;10.50;63.80;;;;;;5054287;28;20401;-75
2024/04/03 06:45:15;;;;;;;;;;;10.70;63.80;;;;;;5052758;28;19920;-75
2024/04/03 06:47:41;;;;;;;;;;;10.90;63.30;;;;;;5036212;28;19983;-76
2024/04/03 06:50:07;;;;;;;;;;;11.20;62.80;;;;;;5053427;28;20019;-75
2024/04/03 06:52:34;;;;;;;;;;;11.40;62.50;;;;;;5053968;28;19921;-75
2024/04/03 06:54:59;;;;;;;;;;;11.60;62.80;;;;;;5052411;28;19920;-73
2024/04/03 06:57:25;;;;;;;;;;;11.90;63.50;;;;;;5051681;28;20244;-72
2024/04/03 06:59:51;;;;;;;;;;;12.10;62.80;;;;;;5053710;28;19913;-75
2024/04/03 07:02:17;;;;;;;;;;;12.40;62.20;;;;;;5053527;28;19999;-75
2024/04/03 07:04:43;;;;;;;;;;;12.50;60.90;;;;;;5052636;28;19916;-71
2024/04/03 07:07:10;;;;;;;;;;;12.80;60.60;;;;;;5053777;28;20365;-72
2024/04/03 07:09:36;;;;;;;;;;;13.00;59.50;;;;;;5053517;28;19973;-71
2024/04/03 07:12:04;;;;;;;;;;;13.10;57.50;;;;;;5051581;28;19921;-71
2024/04/03 07:14:29;;;;;;;;;;;13.30;57.60;;;;;;5052132;28;19917;-75
2024/04/03 07:16:55;;;;;;;;;;;13.40;56.80;;;;;;5052062;28;20011;-72
2024/04/03 07:19:21;;;;;;;;;;;13.60;57.10;;;;;;5053392;28;19916;-72
2024/04/03 07:21:47;;;;;;;;;;;13.80;55.70;;;;;;5051773;28;20305;-75
2024/04/03 07:24:13;;;;;;;;;;;14.00;55.80;;;;;;5053202;28;20364;-76
2024/04/03 07:26:39;;;;;;;;;;;14.20;55.50;;;;;;5051897;28;19947;-75
2024/04/03 07:29:07;;;;;;;;;;;14.30;54.20;;;;;;5035245;28;19913;-72
2024/04/03 07:31:34;;;;;;;;;;;14.50;54.30;;;;;;5051354;28;19928;-75
2024/04/03 07:34:00;;;;;;;;;;;14.60;53.30;;;;;;5052929;28;20293;-72
2024/04/03 07:36:26;;;;;;;;;;;14.80;53.80;;;;;;5053074;28;19999;-76
2024/04/03 07:38:52;;;;;;;;;;;15.10;52.70;;;;;;5051710;28;20437;-71
2024/04/03 07:41:37;;;;;;;;;;;15.20;51.10;;;;;;5052639;28;20393;-72
2024/04/03 07:44:03;;;;;;;;;;;15.30;47.40;;;;;;5051512;28;19928;-71
2024/04/03 07:46:29;;;;;;;;;;;15.50;48.90;;;;;;5052785;28;19912;-75
2024/04/03 07:48:55;;;;;;;;;;;15.70;45.90;;;;;;5052887;28;19921;-75
2024/04/03 07:51:21;;;;;;;;;;;15.80;46.40;;;;;;5034371;28;19927;-72
2024/04/03 07:53:47;;;;;;;;;;;16.10;45.70;;;;;;5051454;28;20382;-72
2024/04/03 07:56:13;;;;;;;;;;;16.50;43.90;;;;;;5052553;28;19923;-73
2024/04/03 07:58:58;;;;;;;;;;;17.10;42.50;;;;;;5051241;28;19917;-72
2024/04/03 08:01:24;;;;;;;;;;;17.50;40.60;;;;;;5050998;28;19998;-75
2024/04/03 08:03:50;;;;;;;;;;;17.70;40.10;;;;;;5052454;28;19916;-72
2024/04/03 08:06:16;;;;;;;;;;;17.80;36.80;;;;;;5052516;28;19923;-72
2024/04/03 08:08:41;;;;;;;;;;;17.80;37.70;;;;;;5051752;28;19925;-71
2024/04/03 08:11:07;;;;;;;;;;;17.90;38.00;;;;;;5033692;28;20007;-75
2024/04/03 08:13:33;;;;;;;;;;;18.10;38.80;;;;;;5051111;28;20034;-72
2024/04/03 08:16:01;;;;;;;;;;;18.50;37.70;;;;;;5051983;28;19913;-72
2024/04/03 08:18:27;;;;;;;;;;;18.80;37.10;;;;;;5050652;28;20428;-75
2024/04/03 08:21:11;;;;;;;;;;;19.10;36.10;;;;;;5050173;28;19917;-72
2024/04/03 08:23:37;;;;;;;;;;;19.50;35.70;;;;;;5052547;28;19983;-71
2024/04/03 08:26:05;;;;;;;;;;;19.60;33.50;;;;;;5052008;28;19928;-76
2024/04/03 08:28:33;;;;;;;;;;;19.70;32.90;;;;;;5050758;28;20471;-72
2024/04/03 08:30:59;;;;;;;;;;;19.50;34.70;;;;;;5050112;28;19928;-75
2024/04/03 08:33:25;;;;;;;;;;;19.60;34.30;;;;;;5052415;28;20340;-76
2024/04/03 08:38:56;;;;;;;;;;;20.10;35.60;;;;;;5050900;28;20020;-76
2024/04/03 08:41:23;;;;;;;;;;;21.00;35.30;;;;;;5051534;28;19920;-73
2024/04/03 08:43:51;;;;;;;;;;;21.90;34.20;;;;;;5051749;28;19924;-75
2024/04/03 08:46:18;;;;;;;;;;;22.40;31.50;;;;;;5050520;28;20386;-72
2024/04/03 08:48:44;;;;;;;;;;;22.60;30.10;;;;;;5051443;28;20297;-72
2024/04/03 08:51:11;;;;;;;;;;;22.80;29.40;;;;;;5050089;28;19920;-72
2024/04/03 08:53:37;;;;;;;;;;;23.00;28.40;;;;;;5033877;28;19943;-75
2024/04/03 08:56:03;;;;;;;;;;;23.00;28.80;;;;;;5050407;28;19962;-76
2024/04/03 08:58:29;;;;;;;;;;;23.20;30.00;;;;;;5051522;28;19967;-72
2024/04/03 09:00:56;;;;;;;;;;;23.50;29.50;;;;;;5049523;28;19917;-76
2024/04/03 09:03:22;;;;;;;;;;;23.70;29.50;;;;;;5051863;28;19999;-76
2024/04/03 09:08:53;;;;;;;;;;;25.00;28.10;;;;;;5050555;28;20389;-76
2024/04/03 09:11:38;;;;;;;;;;;25.50;26.50;;;;;;5049749;28;19917;-75
2024/04/03 09:14:04;;;;;;;;;;;25.20;24.80;;;;;;5050108;28;19924;-75
2024/04/03 09:16:29;;;;;;;;;;;24.60;26.70;;;;;;5051332;28;19912;-75
2024/04/03 09:19:14;;;;;;;;;;;24.20;27.10;;;;;;5050093;28;19958;-72
2024/04/03 09:21:41;;;;;;;;;;;23.80;27.90;;;;;;5053446;28;19916;-76
2024/04/03 09:24:08;;;;;;;;;;;23.40;28.10;;;;;;5054208;28;20445;-76
2024/04/03 09:29:53;;;;;;;;;;;22.50;28.90;;;;;;5055210;28;19925;-75
2024/04/03 09:32:19;;;;;;;;;;;22.10;29.40;;;;;;5053750;28;20286;-72
2024/04/03 09:34:45;;;;;;;;;;;21.80;29.90;;;;;;5055197;28;19912;-72
2024/04/03 09:37:12;;;;;;;;;;;21.40;30.80;;;;;;5053960;28;19944;-71
2024/04/03 09:39:38;;;;;;;;;;;21.20;31.60;;;;;;5055105;28;19913;-76
2024/04/03 09:42:04;;;;;;;;;;;21.20;30.60;;;;;;5053786;28;19924;-76
2024/04/03 09:44:31;;;;;;;;;;;21.40;31.60;;;;;;5054213;28;20310;-76
2024/04/03 09:47:05;;;;;;;;;;;21.70;31.40;;;;;;5055297;28;19916;-72
2024/04/03 09:49:35;;;;;;;;;;;22.30;31.10;;;;;;5053982;28;19956;-76
2024/04/03 09:52:02;;;;;;;;;;;22.80;29.40;;;;;;5053194;28;19928;-76
2024/04/03 09:54:28;;;;;;;;;;;22.80;28.90;;;;;;5053585;28;19995;-76
2024/04/03 09:56:54;;;;;;;;;;;23.30;28.40;;;;;;5053680;28;20334;-76
2024/04/03 09:59:21;;;;;;;;;;;24.00;27.30;;;;;;5054824;28;19971;-72
2024/04/03 10:01:47;;;;;;;;;;;24.70;27.00;;;;;;5052859;28;19983;-76
2024/04/03 10:04:13;;;;;;;;;;;25.90;26.30;;;;;;5054980;28;19912;-72
2024/04/03 10:06:41;;;;;;;;;;;26.60;23.40;;;;;;5036758;28;19920;-76
2024/04/03 10:09:26;;;;;;;;;;;27.20;23.20;;;;;;5054732;28;19913;-76
2024/04/03 10:12:00;;;;;;;;;;;27.50;22.30;;;;;;5052657;28;19963;-75
2024/04/03 10:14:26;;;;;;;;;;;27.80;22.10;;;;;;5053347;28;19913;-76
2024/04/03 10:16:53;;;;;;;;;;;27.90;22.50;;;;;;5054470;28;19921;-76
2024/04/03 10:19:40;;;;;;;;;;;28.00;23.00;;;;;;5054823;28;19913;-76
2024/04/03 10:22:05;;;;;;;;;;;28.20;22.60;;;;;;5054189;28;19921;-76
2024/04/03 10:24:32;;;;;;;;;;;28.50;21.30;;;;;;5053194;28;20309;-72
2024/04/03 10:26:58;;;;;;;;;;;28.70;20.20;;;;;;5052850;28;19929;-72
2024/04/03 10:29:25;;;;;;;;;;;28.60;20.90;;;;;;5054518;28;19936;-72
2024/04/03 10:31:51;;;;;;;;;;;29.20;20.30;;;;;;5052403;28;19927;-76
2024/04/03 10:34:36;;;;;;;;;;;29.80;19.70;;;;;;5053134;28;19913;-72
2024/04/03 10:37:03;;;;;;;;;;;29.60;20.20;;;;;;5054299;28;20416;-75
2024/04/03 10:39:29;;;;;;;;;;;29.50;20.60;;;;;;5053013;28;20243;-72
2024/04/03 10:42:13;;;;;;;;;;;29.00;20.90;;;;;;5053648;28;19924;-71
2024/04/03 10:44:41;;;;;;;;;;;28.90;19.50;;;;;;5053839;28;19913;-76
2024/04/03 10:47:09;;;;;;;;;;;28.80;20.80;;;;;;5052798;28;19920;-76
2024/04/03 10:49:35;;;;;;;;;;;29.50;20.10;;;;;;5052869;28;19940;-72
2024/04/03 10:52:01;;;;;;;;;;;29.40;20.30;;;;;;5052060;28;19921;-76
2024/04/03 10:54:27;;;;;;;;;;;28.60;19.80;;;;;;5053752;28;19913;-75
2024/04/03 10:56:56;;;;;;;;;;;28.00;20.90;;;;;;5052610;28;19939;-76
2024/04/03 10:59:22;;;;;;;;;;;27.40;21.60;;;;;;5052337;28;19917;-71
2024/04/03 11:01:48;;;;;;;;;;;26.60;23.00;;;;;;5052068;28;19944;-72
2024/04/03 11:04:13;;;;;;;;;;;25.70;22.20;;;;;;5053506;28;20004;-72
2024/04/03 11:06:42;;;;;;;;;;;25.20;23.80;;;;;;5053596;28;20004;-76
2024/04/03 11:09:09;;;;;;;;;;;24.80;25.40;;;;;;5052416;28;19912;-71
2024/04/03 11:11:39;;;;;;;;;;;24.60;25.10;;;;;;5053036;28;19964;-77
2024/04/03 11:14:04;;;;;;;;;;;24.10;22.60;;;;;;5035614;28;19952;-72
2024/04/03 11:16:30;;;;;;;;;;;23.60;22.50;;;;;;5052188;28;20016;-70
2024/04/03 11:18:57;;;;;;;;;;;23.10;22.40;;;;;;5052030;28;19917;-75
2024/04/03 11:21:23;;;;;;;;;;;22.80;22.10;;;;;;5052780;28;20381;-71
2024/04/03 11:23:49;;;;;;;;;;;22.70;22.20;;;;;;5052167;28;19920;-76
2024/04/03 11:26:15;;;;;;;;;;;22.40;23.50;;;;;;5053262;28;19971;-71
2024/04/03 11:28:40;;;;;;;;;;;22.40;22.50;;;;;;5053682;28;20011;-72
2024/04/03 11:31:06;;;;;;;;;;;22.30;22.70;;;;;;5052620;28;20007;-76
2024/04/03 11:33:32;;;;;;;;;;;22.00;24.20;;;;;;5052160;28;19927;-73
2024/04/03 11:35:58;;;;;;;;;;;21.70;24.50;;;;;;5051779;28;19932;-77
2024/04/03 11:38:25;;;;;;;;;;;21.60;25.60;;;;;;5051934;28;19933;-77
2024/04/03 11:40:51;;;;;;;;;;;21.50;25.80;;;;;;5051135;28;19920;-76
2024/04/03 11:43:17;;;;;;;;;;;21.50;26.30;;;;;;5052944;28;20408;-71
2024/04/03 11:45:43;;;;;;;;;;;21.20;24.40;;;;;;5052623;28;19960;-71
2024/04/03 11:48:09;;;;;;;;;;;20.90;26.50;;;;;;5053163;28;19952;-76
2024/04/03 11:50:34;;;;;;;;;;;20.80;27.00;;;;;;5052327;28;19928;-76
2024/04/03 11:53:00;;;;;;;;;;;20.60;26.30;;;;;;5051452;28;19924;-71
2024/04/03 11:55:26;;;;;;;;;;;20.70;26.20;;;;;;5051406;28;20072;-71
2024/04/03 11:57:52;;;;;;;;;;;20.70;26.90;;;;;;5052314;28;20019;-76
2024/04/03 12:00:18;;;;;;;;;;;20.80;28.10;;;;;;5051116;28;19955;-71
2024/04/03 12:02:44;;;;;;;;;;;20.80;27.30;;;;;;5052929;28;19924;-71
2024/04/03 12:05:10;;;;;;;;;;;20.70;27.50;;;;;;5034299;28;19946;-76
2024/04/03 12:07:36;;;;;;;;;;;20.30;27.40;;;;;;5051320;28;19924;-76
2024/04/03 12:12:48;;;;;;;;;;;19.40;26.60;;;;;;5051080;28;19966;-77
2024/04/03 12:15:14;;;;;;;;;;;19.20;27.90;;;;;;5052209;28;19917;-71
2024/04/03 12:17:40;;;;;;;;;;;19.00;28.40;;;;;;5034548;28;19928;-75
2024/04/03 12:20:13;;;;;;;;;;;18.80;28.60;;;;;;5050614;28;20011;-71
2024/04/03 12:22:38;;;;;;;;;;;18.50;28.40;;;;;;5052325;28;20301;-76
2024/04/03 12:25:05;;;;;;;;;;;18.30;29.30;;;;;;5050865;28;19920;-71
2024/04/03 12:27:31;;;;;;;;;;;18.10;29.20;;;;;;5052305;28;19923;-71
2024/04/03 12:29:57;;;;;;;;;;;18.10;30.00;;;;;;5052053;28;20445;-71
2024/04/03 12:32:24;;;;;;;;;;;18.00;30.60;;;;;;5050284;28;19924;-75
2024/04/03 12:34:50;;;;;;;;;;;17.90;31.00;;;;;;5050786;28;20007;-75
2024/04/03 12:37:16;;;;;;;;;;;17.90;31.40;;;;;;5050766;28;19943;-71
2024/04/03 12:39:42;;;;;;;;;;;17.90;30.70;;;;;;5051854;28;19967;-76
2024/04/03 12:42:10;;;;;;;;;;;17.90;30.80;;;;;;5033411;28;19924;-76
2024/04/03 12:44:36;;;;;;;;;;;17.80;31.00;;;;;;5050459;28;20288;-75
2024/04/03 12:47:06;;;;;;;;;;;17.80;30.40;;;;;;5033688;28;20397;-71
2024/04/03 12:49:33;;;;;;;;;;;17.80;33.10;;;;;;5051830;28;19923;-71
2024/04/03 12:51:58;;;;;;;;;;;17.80;31.50;;;;;;5049973;28;20457;-71
2024/04/03 12:54:27;;;;;;;;;;;17.80;32.10;;;;;;5049989;28;19923;-71
2024/04/03 12:57:12;;;;;;;;;;;17.80;32.80;;;;;;5050299;28;20366;-71
2024/04/03 12:59:39;;;;;;;;;;;17.80;32.20;;;;;;5051630;28;19931;-75
2024/04/03 13:02:06;;;;;;;;;;;17.90;32.60;;;;;;5033303;28;20362;-76
2024/04/03 13:04:32;;;;;;;;;;;17.80;31.20;;;;;;5051574;28;19922;-75
2024/04/03 13:06:57;;;;;;;;;;;17.70;32.10;;;;;;5050235;28;20362;-74
2024/04/03 13:09:23;;;;;;;;;;;17.60;32.80;;;;;;5050223;28;20024;-76
2024/04/03 13:11:49;;;;;;;;;;;17.50;33.30;;;;;;5032996;28;19931;-71
2024/04/03 13:14:15;;;;;;;;;;;17.50;31.60;;;;;;5050308;28;20366;-72
2024/04/03 13:16:41;;;;;;;;;;;17.50;34.10;;;;;;5051488;28;20362;-76
2024/04/03 13:19:07;;;;;;;;;;;17.50;32.40;;;;;;5050178;28;19913;-76
2024/04/03 13:21:34;;;;;;;;;;;17.50;32.00;;;;;;5049649;28;20394;-75
2024/04/03 13:24:00;;;;;;;;;;;17.30;32.60;;;;;;5050090;28;19917;-71
2024/04/03 13:26:26;;;;;;;;;;;17.30;33.60;;;;;;5050177;28;20271;-71
2024/04/03 13:28:51;;;;;;;;;;;17.20;33.30;;;;;;5033499;28;19917;-71
2024/04/03 13:31:17;;;;;;;;;;;17.20;33.10;;;;;;5049462;28;20392;-75
2024/04/03 13:33:43;;;;;;;;;;;17.30;34.20;;;;;;5050042;28;20007;-71
2024/04/03 13:48:18;;;;;;;0.70;0.60;;;18.00;31.60;;;;;;5129232;27;20621;-70
2024/04/03 13:50:46;;;;;;;1.58;1.00;;;18.00;31.90;;;;;;5116226;27;20435;-70
2024/04/03 13:53:12;;;;;;;0.77;0.47;;;17.90;30.90;;;;;;5067020;28;20396;-70
2024/04/03 13:55:38;;;;;;;0.17;0.17;;;17.80;31.60;;;;;;5066763;28;20083;-75
2024/04/03 13:58:06;;;;;;;0.20;0.20;;;17.60;32.10;;;;;;5050096;28;20397;-73
2024/04/03 14:00:32;;;;;;;0.17;0.17;;;17.50;32.20;;;;;;5066195;28;20037;-75
2024/04/03 14:02:58;;;;;;;0.20;0.20;;;17.40;32.50;;;;;;5066739;28;20498;-74
2024/04/03 14:05:25;;;;;;;0.28;0.20;;;17.30;31.90;;;;;;5067780;28;20033;-75
2024/04/03 14:07:51;;;;;;;0.00;0.00;;;17.30;33.10;;;;;;5066510;28;20264;-70
2024/04/03 14:10:18;;;;;;;0.10;0.10;;;17.20;33.20;;;;;;5063897;28;20033;-70
2024/04/03 14:12:43;;;;;;;;;;;17.10;33.80;;;;;;5046937;28;20037;-70
2024/04/03 14:15:09;;;;;;;0.32;0.32;;;17.10;33.10;;;;;;5046587;28;19913;-70
2024/04/03 14:17:36;;;;;;;0.10;0.10;;;17.00;33.30;;;;;;5048056;28;20037;-75
2024/04/03 14:22:49;;;;;;;0.10;0.10;;;17.30;35.00;;;;;;5065967;28;20044;-70
2024/04/03 14:25:15;;;;;;;0.57;0.50;;;17.70;33.80;;;;;;5067357;28;20563;-74
2024/04/03 14:27:41;;;;;;;0.10;0.10;;;18.10;33.10;;;;;;5066038;28;20543;-70
2024/04/03 14:30:10;;;;;;;0.22;0.10;;;18.50;32.70;;;;;;5066852;28;20041;-70
2024/04/03 14:32:36;;;;;;;0.10;0.10;;;18.50;32.20;;;;;;5066154;28;20095;-75
2024/04/03 14:35:05;;;;;;;0.10;0.10;;;18.40;32.00;;;;;;5067333;28;20040;-70
2024/04/03 14:37:32;;;;;;;0.30;0.30;;;18.30;32.30;;;;;;5065772;28;20045;-74
2024/04/03 14:39:59;;;;;;;0.10;0.10;;;18.20;32.50;;;;;;5067249;28;20402;-70
2024/04/03 14:42:25;;;;;;;0.15;0.15;;;18.20;32.50;;;;;;5048704;28;20041;-72
2024/04/03 14:44:51;;;;;;;0.10;0.10;;;18.40;33.30;;;;;;5066974;28;20043;-74
2024/04/03 14:47:17;;;;;;;0.13;0.13;;;18.30;34.00;;;;;;5062653;28;20051;-74